createdAt,value
2017-09-23T00:01:58.020Z,15.97
2017-09-23T00:04:24.050Z,20.83
2017-09-23T00:06:50.097Z,15.83
2017-09-23T00:09:16.146Z,19.13
2017-09-23T00:11:42.179Z,18.57
2017-09-23T00:14:09.980Z,22.23
2017-09-23T00:16:37.792Z,20.33
2017-09-23T00:19:05.599Z,17.60
2017-09-23T00:21:33.402Z,15.57
2017-09-23T00:24:01.213Z,22.33
2017-09-23T00:26:27.616Z,18.10
2017-09-23T00:28:53.636Z,18.97
2017-09-23T00:31:20.457Z,21.23
2017-09-23T00:33:46.486Z,21.43
2017-09-23T00:36:13.305Z,19.67
2017-09-23T00:38:40.087Z,23.73
2017-09-23T00:41:06.123Z,22.20
2017-09-23T00:43:32.894Z,25.40
2017-09-23T00:45:58.926Z,21.23
2017-09-23T00:48:24.965Z,25.00
2017-09-23T00:50:51.757Z,20.50
2017-09-23T00:53:17.804Z,20.37
2017-09-23T00:55:43.825Z,21.77
2017-09-23T00:58:10.597Z,21.53
2017-09-23T01:00:36.647Z,21.70
2017-09-23T01:03:02.686Z,18.97
2017-09-23T01:05:28.728Z,23.40
2017-09-23T01:07:54.761Z,25.23
2017-09-23T01:10:20.785Z,22.93
2017-09-23T01:12:46.834Z,21.43
2017-09-23T01:15:12.885Z,26.07
2017-09-23T01:17:38.916Z,23.93
2017-09-23T01:20:05.687Z,23.17
2017-09-23T01:22:31.733Z,23.10
2017-09-23T01:24:57.789Z,30.00
2017-09-23T01:27:23.813Z,23.50
2017-09-23T01:29:49.886Z,28.83
2017-09-23T01:32:15.938Z,18.83
2017-09-23T01:34:41.985Z,23.97
2017-09-23T01:37:08.016Z,26.93
2017-09-23T01:39:34.793Z,23.30
2017-09-23T01:42:00.844Z,25.83
2017-09-23T01:44:26.937Z,27.17
2017-09-23T01:46:53.009Z,22.30
2017-09-23T01:49:19.065Z,22.87
2017-09-23T01:51:45.856Z,23.90
2017-09-23T01:54:11.907Z,22.50
2017-09-23T01:56:38.688Z,33.53
2017-09-23T01:59:04.716Z,27.27
2017-09-23T02:01:30.733Z,22.13
2017-09-23T02:03:57.520Z,22.40
2017-09-23T02:06:23.561Z,21.80
2017-09-23T02:08:49.622Z,25.40
2017-09-23T02:11:15.661Z,27.20
2017-09-23T02:13:41.701Z,25.57
2017-09-23T02:16:08.478Z,28.03
2017-09-23T02:18:34.565Z,25.70
2017-09-23T02:21:00.613Z,31.37
2017-09-23T02:23:26.661Z,24.37
2017-09-23T02:25:52.689Z,24.03
2017-09-23T02:28:18.732Z,22.63
2017-09-23T02:30:44.805Z,23.37
2017-09-23T02:33:10.857Z,22.90
2017-09-23T02:35:36.881Z,25.23
2017-09-23T02:38:02.916Z,22.40
2017-09-23T02:40:29.710Z,23.57
2017-09-23T02:42:55.766Z,22.57
2017-09-23T02:45:21.822Z,28.27
2017-09-23T02:47:47.881Z,22.00
2017-09-23T02:50:13.922Z,26.80
2017-09-23T02:52:39.937Z,31.57
2017-09-23T02:55:05.996Z,23.40
2017-09-23T02:57:32.026Z,26.90
2017-09-23T02:59:58.073Z,28.47
2017-09-23T03:02:24.124Z,24.60
2017-09-23T03:04:50.905Z,25.30
2017-09-23T03:07:16.930Z,26.97
2017-09-23T03:09:42.983Z,23.87
2017-09-23T03:12:09.028Z,23.63
2017-09-23T03:14:35.065Z,22.33
2017-09-23T03:17:01.120Z,24.97
2017-09-23T03:19:27.174Z,22.83
2017-09-23T03:21:53.240Z,23.97
2017-09-23T03:24:19.273Z,26.13
2017-09-23T03:26:45.313Z,21.43
2017-09-23T03:29:11.336Z,22.13
2017-09-23T03:31:37.461Z,23.47
2017-09-23T03:34:03.517Z,21.77
2017-09-23T03:36:29.562Z,22.87
2017-09-23T03:38:56.331Z,19.00
2017-09-23T03:41:22.372Z,21.23
2017-09-23T03:43:48.425Z,22.40
2017-09-23T03:46:14.474Z,22.13
2017-09-23T03:48:40.538Z,21.20
2017-09-23T03:51:06.559Z,19.67
2017-09-23T03:53:32.592Z,24.83
2017-09-23T03:55:58.615Z,25.67
2017-09-23T03:58:24.666Z,19.53
2017-09-23T04:00:50.708Z,21.80
2017-09-23T04:03:16.741Z,22.30
2017-09-23T04:05:42.797Z,22.43
2017-09-23T04:08:08.841Z,20.57
2017-09-23T04:10:34.894Z,23.27
2017-09-23T04:13:01.723Z,19.83
2017-09-23T04:15:28.501Z,21.23
2017-09-23T04:17:54.536Z,18.70
2017-09-23T04:20:24.054Z,19.43
2017-09-23T04:22:50.111Z,22.40
2017-09-23T04:25:16.133Z,22.40
2017-09-23T04:27:42.181Z,23.10
2017-09-23T04:30:08.945Z,20.63
2017-09-23T04:32:34.966Z,23.77
2017-09-23T04:35:01.010Z,25.27
2017-09-23T04:37:27.782Z,21.03
2017-09-23T04:39:53.847Z,22.60
2017-09-23T04:42:19.874Z,23.53
2017-09-23T04:44:45.901Z,25.27
2017-09-23T04:47:11.921Z,19.43
2017-09-23T04:49:37.965Z,25.23
2017-09-23T04:52:03.986Z,28.50
2017-09-23T04:54:30.008Z,26.10
2017-09-23T04:56:56.781Z,25.93
2017-09-23T04:59:22.833Z,21.40
2017-09-23T05:01:49.600Z,25.37
2017-09-23T05:04:15.645Z,22.70
2017-09-23T05:06:41.676Z,24.80
2017-09-23T05:09:08.497Z,22.17
2017-09-23T05:11:35.300Z,24.77
2017-09-23T05:14:01.337Z,25.33
2017-09-23T05:16:28.101Z,23.13
2017-09-23T05:18:54.145Z,23.70
2017-09-23T05:21:20.204Z,26.33
2017-09-23T05:23:46.232Z,23.97
2017-09-23T05:26:12.266Z,25.83
2017-09-23T05:28:38.318Z,30.93
2017-09-23T05:31:05.163Z,23.67
2017-09-23T05:33:31.192Z,24.97
2017-09-23T05:35:57.238Z,25.63
2017-09-23T05:38:23.263Z,23.13
2017-09-23T05:40:50.057Z,25.03
2017-09-23T05:43:16.080Z,26.20
2017-09-23T05:45:42.113Z,19.83
2017-09-23T05:48:08.873Z,25.40
2017-09-23T05:50:34.900Z,35.50
2017-09-23T05:53:00.929Z,22.73
2017-09-23T05:55:26.965Z,28.30
2017-09-23T05:57:53.029Z,23.77
2017-09-23T06:00:19.094Z,21.70
2017-09-23T06:02:45.169Z,19.53
2017-09-23T06:05:11.968Z,29.27
2017-09-23T06:07:38.046Z,28.37
2017-09-23T06:10:04.069Z,24.60
2017-09-23T06:12:30.108Z,30.30
2017-09-23T06:14:56.157Z,24.00
2017-09-23T06:17:22.924Z,29.53
2017-09-23T06:19:48.985Z,25.27
2017-09-23T06:22:15.068Z,32.73
2017-09-23T06:24:41.080Z,27.20
2017-09-23T06:27:07.121Z,37.83
2017-09-23T06:29:33.896Z,25.77
2017-09-23T06:31:59.948Z,30.37
2017-09-23T06:34:26.721Z,26.20
2017-09-23T06:36:52.759Z,31.87
2017-09-23T06:39:18.794Z,24.73
2017-09-23T06:41:45.563Z,26.40
2017-09-23T06:44:11.585Z,31.43
2017-09-23T06:46:37.656Z,26.67
2017-09-23T06:49:03.685Z,28.30
2017-09-23T06:51:29.725Z,32.23
2017-09-23T06:53:55.791Z,28.20
2017-09-23T06:56:21.844Z,30.80
2017-09-23T06:58:47.901Z,34.67
2017-09-23T07:01:13.964Z,27.67
2017-09-23T07:03:40.763Z,31.10
2017-09-23T07:06:06.838Z,32.90
2017-09-23T07:08:32.905Z,29.00
2017-09-23T07:10:58.949Z,27.43
2017-09-23T07:13:25.034Z,29.13
2017-09-23T07:15:51.113Z,29.20
2017-09-23T07:18:17.180Z,29.50
2017-09-23T07:20:43.242Z,28.57
2017-09-23T07:23:10.097Z,28.03
2017-09-23T07:25:36.208Z,25.40
2017-09-23T07:28:02.305Z,42.07
2017-09-23T07:30:29.161Z,39.60
2017-09-23T07:32:55.272Z,33.27
2017-09-23T07:35:21.354Z,31.20
2017-09-23T07:37:48.182Z,29.10
2017-09-23T07:40:25.098Z,31.27
2017-09-23T07:42:51.281Z,32.07
2017-09-23T07:45:17.351Z,33.87
2017-09-23T07:47:44.150Z,36.63
2017-09-23T07:50:10.214Z,40.63
2017-09-23T07:52:38.774Z,34.13
2017-09-23T07:55:04.908Z,35.80
2017-09-23T07:57:30.991Z,40.00
2017-09-23T07:59:57.811Z,32.43
2017-09-23T08:02:23.885Z,42.63
2017-09-23T08:04:49.912Z,42.03
2017-09-23T08:07:17.729Z,38.30
2017-09-23T08:09:50.743Z,52.33
2017-09-23T08:12:19.423Z,38.17
2017-09-23T08:14:48.299Z,39.80
2017-09-23T08:17:16.125Z,40.53
2017-09-23T08:19:43.956Z,45.53
2017-09-23T08:22:11.832Z,33.17
2017-09-23T08:24:39.882Z,58.87
2017-09-23T08:27:07.689Z,35.60
2017-09-23T08:29:35.508Z,43.63
2017-09-23T08:32:03.295Z,37.30
2017-09-23T08:34:31.113Z,49.43
2017-09-23T08:36:57.517Z,42.53
2017-09-23T08:39:23.584Z,42.70
2017-09-23T08:41:50.397Z,42.20
2017-09-23T08:44:16.453Z,46.73
2017-09-23T08:46:42.493Z,45.27
2017-09-23T08:49:08.549Z,46.23
2017-09-23T08:51:34.596Z,35.93
2017-09-23T08:54:00.645Z,42.87
2017-09-23T08:56:26.718Z,33.10
2017-09-23T08:58:52.788Z,48.13
2017-09-23T09:01:18.831Z,43.17
2017-09-23T09:03:46.659Z,37.03
2017-09-23T09:06:14.580Z,45.40
2017-09-23T09:08:43.956Z,45.10
2017-09-23T09:11:12.037Z,45.90
2017-09-23T09:13:39.885Z,40.20
2017-09-23T09:16:07.745Z,41.13
2017-09-23T09:18:35.573Z,36.07
2017-09-23T09:21:03.424Z,43.20
2017-09-23T09:23:31.271Z,38.33
2017-09-23T09:25:59.157Z,35.50
2017-09-23T09:28:26.994Z,33.77
2017-09-23T09:30:54.884Z,36.00
2017-09-23T09:33:22.817Z,32.30
2017-09-23T09:35:50.659Z,34.67
2017-09-23T09:38:18.506Z,30.33
2017-09-23T09:40:46.359Z,26.30
2017-09-23T09:43:14.212Z,32.97
2017-09-23T09:45:42.247Z,32.57
2017-09-23T09:48:10.125Z,28.47
2017-09-23T09:50:38.017Z,29.03
2017-09-23T09:53:05.926Z,27.50
2017-09-23T09:55:33.860Z,43.07
2017-09-23T09:58:01.724Z,28.93
2017-09-23T10:00:29.562Z,35.70
2017-09-23T10:02:57.409Z,33.97
2017-09-23T10:05:25.279Z,35.27
2017-09-23T10:07:53.156Z,38.03
2017-09-23T10:10:21.007Z,27.30
2017-09-23T10:12:48.920Z,29.00
2017-09-23T10:15:16.801Z,37.40
2017-09-23T10:17:44.650Z,25.90
2017-09-23T10:20:12.530Z,29.67
2017-09-23T10:22:40.351Z,23.40
2017-09-23T10:25:08.269Z,25.23
2017-09-23T10:27:36.152Z,26.30
2017-09-23T10:30:04.000Z,27.90
2017-09-23T10:32:32.076Z,24.87
2017-09-23T10:34:59.948Z,33.93
2017-09-23T10:37:31.106Z,23.73
2017-09-23T10:39:58.966Z,22.10
2017-09-23T10:42:26.835Z,26.70
2017-09-23T10:44:54.703Z,23.50
2017-09-23T10:47:22.533Z,23.50
2017-09-23T10:49:50.488Z,26.03
2017-09-23T10:52:18.281Z,21.60
2017-09-23T10:54:46.063Z,23.27
2017-09-23T10:57:13.864Z,23.87
2017-09-23T10:59:41.661Z,21.73
2017-09-23T11:02:09.454Z,24.07
2017-09-23T11:04:37.282Z,21.70
2017-09-23T11:07:05.108Z,22.73
2017-09-23T11:09:35.079Z,17.73
2017-09-23T11:12:02.965Z,20.07
2017-09-23T11:14:30.830Z,19.97
2017-09-23T11:16:58.623Z,22.93
2017-09-23T11:19:27.188Z,27.13
2017-09-23T11:21:55.038Z,20.47
2017-09-23T11:24:22.849Z,16.23
2017-09-23T11:26:50.671Z,17.57
2017-09-23T11:29:20.488Z,16.40
2017-09-23T11:31:48.305Z,16.70
2017-09-23T11:34:16.119Z,21.53
2017-09-23T11:36:43.980Z,19.20
2017-09-23T11:39:11.846Z,24.83
2017-09-23T11:41:39.677Z,18.70
2017-09-23T11:44:07.544Z,19.03
2017-09-23T11:46:35.372Z,21.57
2017-09-23T11:49:03.209Z,20.43
2017-09-23T11:51:29.253Z,22.70
2017-09-23T11:53:56.070Z,20.47
2017-09-23T11:56:22.100Z,25.80
2017-09-23T11:58:48.186Z,19.07
2017-09-23T12:01:14.981Z,16.90
2017-09-23T12:03:41.086Z,12.97
2017-09-23T12:06:07.274Z,13.77
2017-09-23T12:08:33.302Z,19.50
2017-09-23T12:10:59.326Z,21.50
2017-09-23T12:13:25.409Z,14.40
2017-09-23T12:15:51.467Z,18.70
2017-09-23T12:18:17.634Z,14.47
2017-09-23T12:20:43.679Z,16.10
2017-09-23T12:23:09.739Z,16.67
2017-09-23T12:25:35.799Z,18.37
2017-09-23T12:28:01.845Z,18.20
2017-09-23T12:30:27.916Z,17.73
2017-09-23T12:32:53.945Z,17.70
2017-09-23T12:35:20.004Z,16.63
2017-09-23T12:37:46.029Z,17.87
2017-09-23T12:40:12.294Z,16.27
2017-09-23T12:42:39.181Z,18.33
2017-09-23T12:45:05.226Z,14.43
2017-09-23T12:47:31.265Z,18.07
2017-09-23T12:49:57.356Z,18.83
2017-09-23T12:52:23.446Z,17.23
2017-09-23T12:54:49.504Z,13.70
2017-09-23T12:57:15.556Z,17.00
2017-09-23T12:59:41.720Z,11.33
2017-09-23T13:02:07.814Z,9.70
2017-09-23T13:04:33.868Z,11.80
2017-09-23T13:06:59.927Z,12.47
2017-09-23T13:09:26.146Z,10.50
2017-09-23T13:11:52.206Z,14.30
2017-09-23T13:14:19.025Z,11.30
2017-09-23T13:16:45.102Z,12.73
2017-09-23T13:19:11.167Z,13.77
2017-09-23T13:21:37.252Z,15.87
2017-09-23T13:24:03.374Z,14.90
2017-09-23T13:26:30.259Z,16.00
2017-09-23T13:28:56.301Z,16.07
2017-09-23T13:31:22.336Z,14.77
2017-09-23T13:33:49.139Z,19.00
2017-09-23T13:36:15.185Z,12.83
2017-09-23T13:38:41.233Z,26.27
2017-09-23T13:41:07.257Z,128.33
2017-09-23T13:43:33.292Z,13.60
2017-09-23T13:46:00.077Z,12.13
2017-09-23T13:48:26.117Z,10.20
2017-09-23T13:50:52.248Z,15.53
2017-09-23T13:53:18.341Z,14.67
2017-09-23T13:55:44.366Z,14.87
2017-09-23T13:58:10.440Z,16.80
2017-09-23T14:00:36.513Z,13.53
2017-09-23T14:03:02.568Z,20.33
2017-09-23T14:05:28.621Z,20.20
2017-09-23T14:07:54.815Z,15.67
2017-09-23T14:10:22.196Z,15.70
2017-09-23T14:12:48.250Z,19.77
2017-09-23T14:15:15.133Z,14.83
2017-09-23T14:17:41.235Z,15.53
2017-09-23T14:20:07.290Z,16.77
2017-09-23T14:22:33.347Z,14.57
2017-09-23T14:24:59.929Z,15.73
2017-09-23T14:27:26.724Z,16.57
2017-09-23T14:29:52.989Z,23.13
2017-09-23T14:32:19.033Z,14.30
2017-09-23T14:34:45.085Z,11.57
2017-09-23T14:37:11.874Z,23.17
2017-09-23T14:39:37.945Z,20.00
2017-09-23T14:42:04.053Z,13.47
2017-09-23T14:44:30.141Z,16.53
2017-09-23T14:46:56.147Z,17.33
2017-09-23T14:49:22.197Z,19.90
2017-09-23T14:51:48.932Z,16.80
2017-09-23T14:54:14.999Z,18.23
2017-09-23T14:56:41.125Z,24.83
2017-09-23T14:59:07.170Z,13.13
2017-09-23T15:01:33.234Z,12.23
2017-09-23T15:04:00.016Z,15.43
2017-09-23T15:06:26.083Z,17.77
2017-09-23T15:08:52.177Z,18.33
2017-09-23T15:11:18.301Z,17.97
2017-09-23T15:13:44.440Z,22.13
2017-09-23T15:16:11.281Z,26.80
2017-09-23T15:18:37.986Z,26.30
2017-09-23T15:21:04.278Z,23.30
2017-09-23T15:23:30.362Z,17.37
2017-09-23T15:25:57.319Z,21.50
2017-09-23T15:28:23.397Z,25.37
2017-09-23T15:30:49.465Z,23.63
2017-09-23T15:33:15.573Z,24.30
2017-09-23T15:35:42.842Z,27.20
2017-09-23T15:38:09.073Z,27.50
2017-09-23T15:40:35.153Z,35.93
2017-09-23T15:43:01.237Z,27.03
2017-09-23T15:45:27.284Z,28.03
2017-09-23T15:47:53.361Z,29.40
2017-09-23T15:50:19.430Z,22.20
2017-09-23T15:52:45.527Z,22.10
2017-09-23T15:55:12.326Z,22.47
2017-09-23T15:57:38.436Z,18.00
2017-09-23T16:00:04.523Z,18.00
2017-09-23T16:02:30.613Z,19.80
2017-09-23T16:04:56.680Z,20.43
2017-09-23T16:07:22.794Z,21.77
2017-09-23T16:09:48.863Z,23.93
2017-09-23T16:12:14.981Z,17.77
2017-09-23T16:14:41.030Z,19.70
2017-09-23T16:17:07.070Z,17.63
2017-09-23T16:19:33.124Z,15.03
2017-09-23T16:21:59.165Z,19.60
2017-09-23T16:24:25.279Z,16.60
2017-09-23T16:26:52.085Z,18.10
2017-09-23T16:29:18.092Z,18.20
2017-09-23T16:31:44.147Z,35.33
2017-09-23T16:34:10.179Z,17.30
2017-09-23T16:36:36.247Z,13.83
2017-09-23T16:39:02.276Z,13.23
2017-09-23T16:41:28.322Z,17.00
2017-09-23T16:43:54.385Z,22.83
2017-09-23T16:46:21.229Z,20.50
2017-09-23T16:48:47.285Z,26.20
2017-09-23T16:51:13.332Z,16.30
2017-09-23T16:53:40.085Z,15.50
2017-09-23T16:56:06.121Z,19.60
2017-09-23T16:58:32.161Z,14.50
2017-09-23T17:00:59.925Z,25.60
2017-09-23T17:03:26.077Z,13.40
2017-09-23T17:05:52.144Z,11.17
2017-09-23T17:08:18.173Z,16.73
2017-09-23T17:10:44.236Z,13.67
2017-09-23T17:13:10.328Z,22.57
2017-09-23T17:15:36.378Z,10.07
2017-09-23T17:18:02.676Z,18.80
2017-09-23T17:20:34.045Z,12.27
2017-09-23T17:23:00.104Z,16.40
2017-09-23T17:25:26.148Z,14.20
2017-09-23T17:27:52.228Z,17.53
2017-09-23T17:30:18.273Z,18.90
2017-09-23T17:32:44.317Z,15.07
2017-09-23T17:35:10.337Z,18.07
2017-09-23T17:37:36.388Z,19.20
2017-09-23T17:40:03.159Z,17.73
2017-09-23T17:42:29.204Z,20.17
2017-09-23T17:44:55.250Z,16.80
2017-09-23T17:47:21.305Z,19.50
2017-09-23T17:49:47.395Z,18.20
2017-09-23T17:52:13.507Z,19.40
2017-09-23T17:54:39.536Z,20.87
2017-09-23T17:57:05.699Z,21.87
2017-09-23T17:59:31.817Z,32.47
2017-09-23T18:01:57.869Z,24.10
2017-09-23T18:04:23.934Z,31.50
2017-09-23T18:06:49.954Z,22.10
2017-09-23T18:09:15.996Z,20.20
2017-09-23T18:11:42.825Z,34.10
2017-09-23T18:14:08.873Z,22.80
2017-09-23T18:16:34.909Z,23.67
2017-09-23T18:19:00.991Z,29.47
2017-09-23T18:21:27.073Z,27.80
2017-09-23T18:23:53.943Z,27.10
2017-09-23T18:26:19.991Z,24.83
2017-09-23T18:28:46.053Z,23.23
2017-09-23T18:31:12.114Z,27.00
2017-09-23T18:33:38.161Z,22.63
2017-09-23T18:36:04.181Z,32.70
2017-09-23T18:38:30.229Z,28.30
2017-09-23T18:40:56.286Z,24.93
2017-09-23T18:43:22.347Z,28.83
2017-09-23T18:45:49.350Z,26.37
2017-09-23T18:48:15.384Z,26.97
2017-09-23T18:50:41.408Z,32.23
2017-09-23T18:53:07.450Z,25.57
2017-09-23T18:55:33.489Z,27.00
2017-09-23T18:57:59.519Z,28.00
2017-09-23T19:00:25.553Z,31.53
2017-09-23T19:02:52.367Z,25.37
2017-09-23T19:05:18.405Z,42.77
2017-09-23T19:07:45.201Z,28.77
2017-09-23T19:10:12.066Z,28.50
2017-09-23T19:12:38.162Z,26.67
2017-09-23T19:15:04.181Z,32.03
2017-09-23T19:17:30.241Z,27.50
2017-09-23T19:19:56.288Z,29.27
2017-09-23T19:22:22.361Z,23.33
2017-09-23T19:24:48.397Z,23.07
2017-09-23T19:27:14.398Z,31.13
2017-09-23T19:29:40.432Z,29.00
2017-09-23T19:32:06.506Z,22.70
2017-09-23T19:34:32.556Z,28.53
2017-09-23T19:36:58.623Z,21.40
2017-09-23T19:39:24.676Z,20.20
2017-09-23T19:41:50.724Z,25.30
2017-09-23T19:44:16.737Z,30.07
2017-09-23T19:46:42.772Z,24.93
2017-09-23T19:49:08.802Z,24.63
2017-09-23T19:51:35.574Z,25.57
2017-09-23T19:54:01.591Z,25.30
2017-09-23T19:56:27.625Z,22.30
2017-09-23T19:58:53.641Z,23.57
2017-09-23T20:01:19.664Z,20.40
2017-09-23T20:03:45.692Z,21.40
2017-09-23T20:06:11.781Z,23.27
2017-09-23T20:08:38.540Z,19.17
2017-09-23T20:11:04.542Z,19.70
2017-09-23T20:13:30.591Z,19.13
2017-09-23T20:15:56.621Z,23.00
2017-09-23T20:18:23.381Z,19.57
2017-09-23T20:20:49.397Z,22.00
2017-09-23T20:23:15.413Z,21.40
2017-09-23T20:25:41.432Z,20.43
2017-09-23T20:28:07.447Z,20.33
2017-09-23T20:30:33.494Z,23.27
2017-09-23T20:33:00.245Z,25.67
2017-09-23T20:35:26.290Z,24.63
2017-09-23T20:37:52.293Z,22.60
2017-09-23T20:40:18.320Z,21.83
2017-09-23T20:42:44.374Z,29.30
2017-09-23T20:45:10.384Z,26.87
2017-09-23T20:47:36.416Z,33.00
2017-09-23T20:50:02.477Z,32.97
2017-09-23T20:52:29.260Z,30.87
2017-09-23T20:54:55.290Z,30.23
2017-09-23T20:57:21.326Z,28.20
2017-09-23T20:59:48.284Z,31.87
2017-09-23T21:02:14.332Z,44.90
2017-09-23T21:04:40.364Z,37.20
2017-09-23T21:07:07.135Z,37.97
2017-09-23T21:09:33.168Z,36.30
2017-09-23T21:11:59.200Z,37.20
2017-09-23T21:14:25.976Z,36.50
2017-09-23T21:16:52.014Z,33.90
2017-09-23T21:19:18.040Z,38.00
2017-09-23T21:21:44.077Z,102.53
2017-09-23T21:24:10.132Z,35.10
2017-09-23T21:26:36.194Z,37.93
2017-09-23T21:29:02.250Z,41.33
2017-09-23T21:31:28.399Z,37.27
2017-09-23T21:33:54.462Z,38.90
2017-09-23T21:36:20.521Z,44.17
2017-09-23T21:38:47.319Z,37.70
2017-09-23T21:41:14.129Z,41.23
2017-09-23T21:43:40.190Z,38.37
2017-09-23T21:46:06.228Z,41.50
2017-09-23T21:48:32.277Z,37.83
2017-09-23T21:50:58.312Z,37.23
2017-09-23T21:53:24.348Z,37.33
2017-09-23T21:55:50.397Z,40.23
2017-09-23T21:58:16.427Z,33.50
2017-09-23T22:00:44.047Z,37.10
2017-09-23T22:03:10.874Z,39.60
2017-09-23T22:05:36.956Z,36.43
2017-09-23T22:08:03.030Z,34.93
2017-09-23T22:10:29.077Z,34.60
2017-09-23T22:12:55.121Z,38.10
2017-09-23T22:15:21.155Z,33.03
2017-09-23T22:17:47.186Z,37.77
2017-09-23T22:20:13.238Z,37.53
2017-09-23T22:25:12.030Z,39.20
2017-09-23T22:27:38.804Z,39.07
2017-09-23T22:30:04.857Z,44.37
2017-09-23T22:32:31.668Z,38.77
2017-09-23T22:34:57.720Z,40.97
2017-09-23T22:37:23.785Z,38.97
2017-09-23T22:39:49.831Z,38.03
2017-09-23T22:42:16.633Z,40.57
2017-09-23T22:44:42.692Z,38.17
2017-09-23T22:47:08.799Z,45.10
2017-09-23T22:49:34.819Z,42.70
2017-09-23T22:52:00.868Z,44.27
2017-09-23T22:54:26.893Z,43.40
2017-09-23T22:56:53.673Z,40.57
2017-09-23T22:59:19.693Z,41.10
2017-09-23T23:01:45.716Z,43.17
2017-09-23T23:04:11.771Z,40.03
2017-09-23T23:06:37.829Z,42.60
2017-09-23T23:09:03.920Z,43.20
2017-09-23T23:11:29.986Z,43.80
2017-09-23T23:13:56.029Z,45.67
2017-09-23T23:16:22.070Z,44.63
2017-09-23T23:18:48.144Z,42.97
2017-09-23T23:21:14.177Z,48.90
2017-09-23T23:23:40.213Z,50.00
2017-09-23T23:26:06.243Z,45.70
2017-09-23T23:28:32.308Z,51.97
2017-09-23T23:30:58.345Z,47.27
2017-09-23T23:33:25.112Z,44.50
2017-09-23T23:35:51.192Z,47.40
2017-09-23T23:38:17.285Z,47.47
2017-09-23T23:40:44.107Z,50.47
2017-09-23T23:43:10.909Z,47.43
2017-09-23T23:45:36.961Z,45.40
2017-09-23T23:48:03.008Z,45.30
2017-09-23T23:50:29.241Z,44.53
2017-09-23T23:52:55.295Z,44.17
2017-09-23T23:55:22.068Z,42.93
2017-09-23T23:57:48.112Z,46.47
